Terminal Aerodrome Forecast
Issued by NWS Blacksburg, VA

Current Version | Previous Version | Text Only | Print | Product List | Glossary Off
Versions: 1 2 3 4 5 6 7 8 9 10 11 12 13 14 15 16 17 18 19 20 21 22 23 24 25 26 27 28 29 30 31 32 33 34 35 36 37 38 39 40 41 42 43 44 45 46 47 48 49 50

000
FTUS41 KRNK 042154 AAB
TAFBLF
TAF AMD
KBLF 042154Z 0422/0518 33006KT P6SM SCT012 BKN035
     FM050200 27004KT P6SM SCT007
     FM050600 VRB04KT 4SM BR BKN004
      TEMPO 0508/0512 1/2SM FG VV004
     FM051300 19003KT P6SM SCT025 OVC050=

USA.gov is the U.S. government's official web portal to all federal, state and local government web resources and services.